Accueil
METAR-TAF:

METAR-TAF

Aéroports :

Koweït, Koweït

Aéroport international de Koweït

latitude: 29-13N, longitude: 047-59E, altitude: 55 m

Observation

Le bulletin a été fait il y a 23 minutes, à 15:00 UTC
Vent 4 kt de sud-est
Température 38°C
Humidité 31%
Pression 1005 hPa
Visibilité: 6000 m
Ciel clair

METAR: OKBK 191500Z 13004KT 6000 SKC 38/18 Q1005 NOSIG

Heure: 18:23 (15:23 UTC)

Prévision

Le bulletin a été fait il y a 4 heures et 38 minutes, à 10:45 UTC
Prévision valable du 19 à 12 UTC au 20 à 18 UTC
Vent 10 kt de nord
Visibilité: 7000 m
Ciel clair
Temporairement
du 19 à 12 UTC au 19 à 20 UTC
Vent 3 kt de direction variable

TAF: OKBK 191045Z 1912/2018 35010KT 7000 SKC TEMPO 1912/1920 VRB03KT

Observations et prévisions météorologiques de plus de 4000 aéroports (messages METAR et TAF).

Les stations disponibles sont représentées par des disques jaunes et rouges sur la carte.

Passer la souris dessus pour voir le nom de la station.

Cliquer dessus pour voir les observations et prévisions météorologiques.

Pour changer de carte: cliquez sur les boutons verts avec une croix noire pour zoomer, sur le bouton vert avec un tiret pour effectuer un zoom arrière, ou sur les flèches vertes pour les cartes adjacentes.


METAR-TAF: